Terminal Aerodrome Forecast
Issued by NWS

Home | Current Version | Previous Version | Text Only | Print | Product List | Glossary On
Versions: 1 2 3 4 5 6 7 8 9 10 11 12 13 14 15 16
000
FTUS43 KICT 062340
TAFSLN
TAF
KSLN 062340Z 0700/0724 01015G22KT P6SM OVC015
     FM070100 02015KT P6SM SCT015 OVC035
     FM070300 04012KT P6SM SCT035 BKN100
     FM071500 07010KT P6SM BKN120=

USA.gov is the U.S. government's official web portal to all federal, state and local government web resources and services.